Terminal Aerodrome Forecast
Issued by NWS

Home | Current Version | Previous Version | Text Only | Print | Product List | Glossary On
Versions: 1 2 3 4 5 6 7 8 9 10 11 12 13 14 15 16 17 18 19 20 21 22 23 24 25 26 27 28
476
FTUS43 KGLD 241129
TAFMCK
TAF
KMCK 241129Z 2412/2512 VRB06KT P6SM SCT100 BKN250
     FM241400 07012KT P6SM SCT250
     FM242300 08011G16KT P6SM SCT250
     FM250300 07006KT P6SM SCT100=

USA.gov is the U.S. government's official web portal to all federal, state and local government web resources and services.